Time;durP1;ratioP1;P1;durP2;ratioP2;P2;SDS_P1;SDS_P2;PMS_P1;PMS_P2;Temp;Humidity;BMP_temperature;BMP_pressure;BME280_temperature;BME280_humidity;BME280_pressure;Samples;Min_cycle;Max_cycle;Signal;HPM_P1;HPM_P2
2023/12/08 00:02:23;;;;;;;6.47;4.57;;;6.10;99.90;;;;;;5091464;28;20169;-72
2023/12/08 00:04:48;;;;;;;5.37;4.10;;;5.90;99.90;;;;;;5092892;28;20219;-72
2023/12/08 00:07:14;;;;;;;6.60;4.33;;;5.80;99.90;;;;;;5093071;28;20654;-72
2023/12/08 00:09:39;;;;;;;6.57;4.30;;;5.80;99.90;;;;;;5092858;28;20182;-72
2023/12/08 00:12:05;;;;;;;5.27;4.20;;;5.70;99.90;;;;;;5091679;28;20168;-72
2023/12/08 00:14:31;;;;;;;5.20;4.70;;;5.60;99.90;;;;;;5092546;28;20218;-72
2023/12/08 00:16:56;;;;;;;4.93;4.23;;;5.50;99.90;;;;;;5093226;28;20623;-72
2023/12/08 00:19:22;;;;;;;6.93;4.60;;;5.50;99.90;;;;;;5092635;28;20174;-72
2023/12/08 00:21:48;;;;;;;5.50;4.90;;;5.40;99.90;;;;;;5093011;28;20674;-71
2023/12/08 00:24:13;;;;;;;5.33;4.83;;;5.40;99.90;;;;;;5091642;28;20295;-72
2023/12/08 00:26:39;;;;;;;5.67;4.00;;;5.40;99.90;;;;;;5092312;28;20224;-71
2023/12/08 00:29:04;;;;;;;7.00;5.30;;;5.30;99.90;;;;;;5092486;28;20168;-72
2023/12/08 00:31:30;;;;;;;7.70;5.67;;;5.30;99.90;;;;;;5091338;28;20528;-71
2023/12/08 00:33:56;;;;;;;6.47;5.23;;;5.30;99.90;;;;;;5092524;28;20180;-71
2023/12/08 00:36:22;;;;;;;6.33;4.93;;;5.30;99.90;;;;;;5092658;28;20164;-72
2023/12/08 00:38:48;;;;;;;7.93;5.40;;;5.30;99.90;;;;;;5096303;28;20175;-72
2023/12/08 00:41:14;;;;;;;7.20;5.80;;;5.40;99.90;;;;;;5096538;28;20213;-72
2023/12/08 00:43:39;;;;;;;6.17;5.57;;;5.40;99.90;;;;;;5095959;28;20540;-72
2023/12/08 00:46:05;;;;;;;6.23;5.47;;;5.40;99.90;;;;;;5096079;28;20566;-71
2023/12/08 00:48:31;;;;;;;6.20;5.53;;;5.30;99.90;;;;;;5094426;28;20180;-70
2023/12/08 00:50:56;;;;;;;6.07;5.47;;;5.30;99.90;;;;;;5095963;28;20201;-71
2023/12/08 00:53:22;;;;;;;6.40;5.67;;;5.30;99.90;;;;;;5096083;28;20167;-71
2023/12/08 00:55:48;;;;;;;6.87;5.90;;;5.20;99.90;;;;;;5095969;28;20643;-72
2023/12/08 00:58:16;;;;;;;5.90;5.37;;;5.20;99.90;;;;;;5095635;28;20289;-71
2023/12/08 01:00:43;;;;;;;7.97;6.27;;;5.20;99.90;;;;;;5095992;28;20177;-72
2023/12/08 01:03:09;;;;;;;7.90;5.90;;;5.10;99.90;;;;;;5094405;28;20206;-71
2023/12/08 01:05:34;;;;;;;10.43;6.50;;;5.20;99.90;;;;;;5095602;28;20208;-72
2023/12/08 01:08:00;;;;;;;9.43;6.90;;;5.10;99.90;;;;;;5094496;28;20190;-72
2023/12/08 01:10:25;;;;;;;7.83;6.67;;;5.10;99.90;;;;;;5095621;28;20176;-72
2023/12/08 01:12:51;;;;;;;7.80;6.70;;;5.10;99.90;;;;;;5095544;28;20229;-71
2023/12/08 01:15:16;;;;;;;9.83;7.50;;;5.10;99.90;;;;;;5095723;28;20172;-71
2023/12/08 01:17:42;;;;;;;8.53;7.10;;;5.10;99.90;;;;;;5094342;28;20172;-71
2023/12/08 01:20:09;;;;;;;9.60;6.73;;;5.10;99.90;;;;;;5095592;28;20237;-71
2023/12/08 01:22:35;;;;;;;9.40;7.47;;;5.10;99.90;;;;;;5094146;28;20573;-70
2023/12/08 01:25:00;;;;;;;8.40;6.90;;;5.00;99.90;;;;;;5094940;28;20219;-71
2023/12/08 01:27:27;;;;;;;10.10;7.03;;;5.00;99.90;;;;;;5095222;28;20212;-72
2023/12/08 01:29:52;;;;;;;9.50;7.70;;;5.00;99.90;;;;;;5095446;28;20183;-70
2023/12/08 01:32:18;;;;;;;8.37;7.30;;;5.00;99.90;;;;;;5095067;28;20309;-71
2023/12/08 01:34:44;;;;;;;9.70;7.70;;;5.00;99.90;;;;;;5095356;28;20175;-72
2023/12/08 01:37:09;;;;;;;12.03;7.90;;;5.00;99.90;;;;;;5095117;28;20179;-70
2023/12/08 01:39:35;;;;;;;9.50;8.03;;;5.00;99.90;;;;;;5095065;28;20183;-71
2023/12/08 01:42:02;;;;;;;8.10;7.17;;;5.00;99.90;;;;;;5095093;28;20175;-71
2023/12/08 01:44:27;;;;;;;9.03;7.63;;;5.00;99.90;;;;;;5095062;28;20190;-71
2023/12/08 01:46:53;;;;;;;9.00;7.70;;;5.00;99.90;;;;;;5094840;28;20179;-71
2023/12/08 01:49:19;;;;;;;10.30;7.87;;;4.90;99.90;;;;;;5093661;28;20581;-70
2023/12/08 01:51:45;;;;;;;9.50;7.70;;;4.90;99.90;;;;;;5094840;28;20176;-71
2023/12/08 01:54:14;;;;;;;11.03;8.07;;;4.90;99.90;;;;;;5094607;28;20259;-70
2023/12/08 01:56:40;;;;;;;9.93;8.17;;;4.90;99.90;;;;;;5094767;28;20646;-71
2023/12/08 01:59:08;;;;;;;10.27;7.80;;;4.80;99.90;;;;;;5094852;28;20583;-70
2023/12/08 02:01:34;;;;;;;10.47;7.33;;;4.90;99.90;;;;;;5094654;28;20198;-70
2023/12/08 02:03:59;;;;;;;10.03;7.80;;;4.90;99.90;;;;;;5094646;28;20172;-70
2023/12/08 02:06:25;;;;;;;10.63;8.33;;;4.90;99.90;;;;;;5094718;28;20179;-70
2023/12/08 02:08:51;;;;;;;10.27;8.43;;;4.80;99.90;;;;;;5094453;28;20175;-70
2023/12/08 02:11:18;;;;;;;9.10;7.80;;;4.90;99.90;;;;;;5094618;28;20168;-70
2023/12/08 02:13:44;;;;;;;11.77;8.97;;;4.90;99.90;;;;;;5094417;28;20183;-71
2023/12/08 02:16:36;;;;;;;11.30;8.43;;;4.90;99.90;;;;;;5094442;28;20199;-71
2023/12/08 02:19:06;;;;;;;12.10;8.27;;;4.80;99.90;;;;;;5094337;28;20210;-70
2023/12/08 02:21:32;;;;;;;10.90;8.33;;;4.90;99.90;;;;;;5094364;28;20180;-70
2023/12/08 02:23:58;;;;;;;9.47;8.30;;;4.90;99.90;;;;;;5093823;28;20188;-70
2023/12/08 02:26:24;;;;;;;10.90;8.60;;;4.90;99.90;;;;;;5093986;28;20654;-70
2023/12/08 02:28:49;;;;;;;12.07;9.23;;;5.00;99.90;;;;;;5094243;28;20650;-71
2023/12/08 02:31:19;;;;;;;11.03;8.67;;;5.00;99.90;;;;;;5094199;28;20176;-71
2023/12/08 02:33:48;;;;;;;13.27;9.20;;;5.00;99.90;;;;;;5093882;28;20350;-71
2023/12/08 02:36:16;;;;;;;13.73;9.63;;;5.10;99.90;;;;;;5094134;28;20176;-70
2023/12/08 02:38:42;;;;;;;12.57;8.47;;;5.00;99.90;;;;;;5093712;28;20183;-70
2023/12/08 02:41:09;;;;;;;11.87;9.17;;;5.00;99.90;;;;;;5094079;28;20269;-70
2023/12/08 02:43:34;;;;;;;11.80;9.33;;;4.90;99.90;;;;;;5093793;28;20279;-70
2023/12/08 02:46:00;;;;;;;13.63;9.97;;;5.00;99.90;;;;;;5093881;28;20309;-69
2023/12/08 02:48:25;;;;;;;13.30;9.67;;;4.90;99.90;;;;;;5093955;28;20528;-70
2023/12/08 02:50:51;;;;;;;14.50;10.03;;;5.00;99.90;;;;;;5093774;28;20793;-71
2023/12/08 02:53:17;;;;;;;14.47;9.63;;;5.00;99.90;;;;;;5093676;28;20164;-71
2023/12/08 02:55:43;;;;;;;12.63;9.83;;;5.00;99.90;;;;;;5093693;28;20194;-71
2023/12/08 02:58:08;;;;;;;12.60;9.87;;;5.10;99.90;;;;;;5092528;28;20584;-71
2023/12/08 03:00:34;;;;;;;13.37;9.63;;;5.20;99.90;;;;;;5093356;28;20172;-71
2023/12/08 03:02:59;;;;;;;13.63;10.30;;;5.30;99.90;;;;;;5093602;28;20164;-70
2023/12/08 03:05:25;;;;;;;12.87;9.50;;;5.30;99.90;;;;;;5093536;28;20196;-70
2023/12/08 03:07:51;;;;;;;13.17;9.63;;;5.30;99.90;;;;;;5093274;28;20271;-70
2023/12/08 03:10:16;;;;;;;12.33;10.30;;;5.40;99.90;;;;;;5093400;28;20176;-71
2023/12/08 03:12:42;;;;;;;14.03;10.20;;;5.40;99.90;;;;;;5093475;28;20183;-71
2023/12/08 03:15:08;;;;;;;14.80;10.40;;;5.50;99.90;;;;;;5093885;28;20174;-71
2023/12/08 03:17:34;;;;;;;14.10;10.70;;;5.50;99.90;;;;;;5093420;28;20708;-71
2023/12/08 03:19:59;;;;;;;13.67;10.27;;;5.60;99.90;;;;;;5093364;28;20164;-70
2023/12/08 03:22:26;;;;;;;14.40;10.07;;;5.50;99.90;;;;;;5093019;28;20267;-71
2023/12/08 03:24:51;;;;;;;14.70;10.80;;;5.60;99.90;;;;;;5093173;28;20290;-71
2023/12/08 03:27:17;;;;;;;14.30;10.80;;;5.50;99.90;;;;;;5093050;28;20783;-71
2023/12/08 03:29:42;;;;;;;15.53;10.67;;;5.50;99.90;;;;;;5093345;28;20203;-71
2023/12/08 03:32:08;;;;;;;14.03;9.97;;;5.60;99.90;;;;;;5093156;28;20167;-70
2023/12/08 03:34:34;;;;;;;13.43;10.20;;;5.60;99.90;;;;;;5093291;28;20176;-71
2023/12/08 03:37:00;;;;;;;13.63;10.70;;;5.60;99.90;;;;;;5092847;28;20191;-71
2023/12/08 03:39:25;;;;;;;14.50;10.40;;;5.60;99.90;;;;;;5093026;28;20180;-71
2023/12/08 03:41:51;;;;;;;12.70;10.50;;;5.70;99.90;;;;;;5092852;28;20555;-70
2023/12/08 03:44:16;;;;;;;13.70;10.60;;;5.70;99.90;;;;;;5093063;28;20254;-71
2023/12/08 03:46:43;;;;;;;14.53;10.40;;;5.60;99.90;;;;;;5093309;28;20176;-71
2023/12/08 03:49:08;;;;;;;16.17;11.27;;;5.70;99.90;;;;;;5093129;28;20171;-72
2023/12/08 03:51:34;;;;;;;15.17;11.13;;;5.80;99.90;;;;;;5092636;28;20180;-70
2023/12/08 03:53:59;;;;;;;12.70;9.60;;;5.80;99.90;;;;;;5092732;28;20171;-70
2023/12/08 03:56:25;;;;;;;14.43;10.60;;;5.80;99.90;;;;;;5092939;28;20172;-70
2023/12/08 03:58:51;;;;;;;13.63;10.37;;;5.90;99.90;;;;;;5093056;28;20246;-70
2023/12/08 04:01:20;;;;;;;16.50;11.33;;;6.00;99.90;;;;;;5092742;28;20264;-70
2023/12/08 04:03:46;;;;;;;16.30;10.70;;;5.90;99.90;;;;;;5092952;28;20247;-70
2023/12/08 04:06:12;;;;;;;14.03;11.03;;;5.90;99.90;;;;;;5092398;28;20687;-71
2023/12/08 04:08:38;;;;;;;17.60;11.77;;;5.90;99.90;;;;;;5091799;28;20245;-70
2023/12/08 04:11:04;;;;;;;18.53;11.67;;;6.00;99.90;;;;;;5093595;28;20194;-71
2023/12/08 04:13:29;;;;;;;18.30;11.00;;;6.00;99.90;;;;;;5096053;28;20214;-71
2023/12/08 04:15:55;;;;;;;16.73;11.17;;;6.10;99.90;;;;;;5096660;28;20176;-70
2023/12/08 04:18:20;;;;;;;17.10;10.93;;;6.10;99.90;;;;;;5096215;28;20172;-71
2023/12/08 04:20:46;;;;;;;16.17;11.23;;;6.10;99.90;;;;;;5096244;28;20245;-71
2023/12/08 04:23:12;;;;;;;15.30;11.53;;;6.10;99.90;;;;;;5096183;28;20533;-71
2023/12/08 04:25:37;;;;;;;18.13;10.93;;;6.10;99.90;;;;;;5096243;28;20216;-71
2023/12/08 04:28:04;;;;;;;18.70;11.80;;;6.20;99.90;;;;;;5096097;28;20234;-71
2023/12/08 04:30:29;;;;;;;19.43;12.57;;;6.20;99.90;;;;;;5096680;28;20211;-71
2023/12/08 04:32:55;;;;;;;23.43;11.90;;;6.30;99.90;;;;;;5096296;28;20309;-71
2023/12/08 04:35:22;;;;;;;16.27;10.97;;;6.30;99.90;;;;;;5095798;28;20186;-70
2023/12/08 04:37:47;;;;;;;24.33;13.03;;;6.20;99.90;;;;;;5095980;28;20229;-71
2023/12/08 04:40:13;;;;;;;20.20;12.73;;;6.20;99.90;;;;;;5095955;28;20175;-71
2023/12/08 04:42:39;;;;;;;21.73;12.43;;;6.30;99.90;;;;;;5095955;28;20530;-71
2023/12/08 04:45:05;;;;;;;23.17;13.30;;;6.30;99.90;;;;;;5096099;28;20216;-71
2023/12/08 04:47:30;;;;;;;25.87;13.43;;;6.30;99.90;;;;;;5094454;28;20171;-71
2023/12/08 04:49:56;;;;;;;21.70;13.10;;;6.30;99.90;;;;;;5095743;28;20172;-71
2023/12/08 04:52:22;;;;;;;23.90;13.90;;;6.30;99.90;;;;;;5095412;28;20230;-71
2023/12/08 04:54:47;;;;;;;24.30;13.17;;;6.30;99.90;;;;;;5095501;28;20227;-71
2023/12/08 04:57:13;;;;;;;25.53;13.53;;;6.40;99.90;;;;;;5095774;28;20168;-71
2023/12/08 04:59:39;;;;;;;24.53;13.37;;;6.40;99.90;;;;;;5095551;28;20179;-71
2023/12/08 05:02:05;;;;;;;25.33;13.60;;;6.50;99.90;;;;;;5095666;28;20624;-71
2023/12/08 05:04:31;;;;;;;21.37;12.97;;;6.50;99.90;;;;;;5095162;28;20196;-71
2023/12/08 05:06:57;;;;;;;28.00;14.23;;;6.50;99.90;;;;;;5095618;28;20192;-71
2023/12/08 05:09:22;;;;;;;27.33;14.00;;;6.50;99.90;;;;;;5095403;28;20199;-71
2023/12/08 05:11:48;;;;;;;25.37;13.80;;;6.50;99.90;;;;;;5095055;28;20171;-71
2023/12/08 05:14:14;;;;;;;24.63;13.80;;;6.50;99.90;;;;;;5095008;28;20172;-71
2023/12/08 05:16:39;;;;;;;27.97;14.87;;;6.50;99.90;;;;;;5095395;28;20176;-71
2023/12/08 05:19:05;;;;;;;26.03;13.53;;;6.50;99.90;;;;;;5093291;28;20195;-71
2023/12/08 05:21:31;;;;;;;26.20;14.13;;;6.50;99.90;;;;;;5095292;28;20172;-71
2023/12/08 05:23:56;;;;;;;28.53;15.00;;;6.60;99.90;;;;;;5094533;28;20542;-71
2023/12/08 05:26:23;;;;;;;27.90;14.20;;;6.60;99.90;;;;;;5094421;28;20663;-70
2023/12/08 05:28:49;;;;;;;25.47;13.80;;;6.60;99.90;;;;;;5094488;28;20172;-70
2023/12/08 05:31:14;;;;;;;27.17;14.67;;;6.70;99.90;;;;;;5094707;28;20179;-71
2023/12/08 05:33:40;;;;;;;27.77;15.20;;;6.60;99.90;;;;;;5094572;28;20627;-70
2023/12/08 05:36:06;;;;;;;28.07;15.20;;;6.80;99.90;;;;;;5094796;28;20228;-71
2023/12/08 05:38:32;;;;;;;27.70;14.47;;;6.70;99.90;;;;;;5093458;28;20172;-71
2023/12/08 05:40:57;;;;;;;32.33;15.30;;;6.70;99.90;;;;;;5094643;28;20171;-71
2023/12/08 05:43:23;;;;;;;27.40;14.63;;;6.70;99.90;;;;;;5094764;28;20278;-71
2023/12/08 05:45:49;;;;;;;33.70;15.43;;;6.70;99.90;;;;;;5094223;28;20204;-71
2023/12/08 05:48:14;;;;;;;32.90;15.70;;;6.80;99.90;;;;;;5092952;28;20168;-71
2023/12/08 05:50:40;;;;;;;33.97;15.97;;;6.70;99.90;;;;;;5094417;28;20631;-71
2023/12/08 05:53:06;;;;;;;37.53;16.33;;;6.70;99.90;;;;;;5093915;28;20157;-71
2023/12/08 05:55:32;;;;;;;35.77;17.33;;;6.70;99.90;;;;;;5093856;28;20184;-71
2023/12/08 05:57:57;;;;;;;34.47;16.27;;;6.80;99.90;;;;;;5093782;28;20172;-71
2023/12/08 06:00:23;;;;;;;37.57;17.50;;;6.80;99.90;;;;;;5093787;28;20308;-71
2023/12/08 06:02:48;;;;;;;34.53;16.53;;;6.80;99.90;;;;;;5093714;28;20172;-70
2023/12/08 06:05:15;;;;;;;35.07;17.10;;;6.90;99.90;;;;;;5092317;28;20754;-71
2023/12/08 06:07:41;;;;;;;37.43;18.07;;;6.90;99.90;;;;;;5092442;28;20179;-71
2023/12/08 06:10:11;;;;;;;40.07;17.93;;;7.00;99.90;;;;;;5093118;28;20168;-71
2023/12/08 06:12:38;;;;;;;36.57;18.10;;;7.10;99.90;;;;;;5093417;28;20174;-71
2023/12/08 06:15:06;;;;;;;39.80;17.73;;;7.00;99.90;;;;;;5093442;28;20179;-71
2023/12/08 06:17:32;;;;;;;46.83;17.47;;;7.10;99.90;;;;;;5093407;28;20175;-71
2023/12/08 06:19:57;;;;;;;39.23;18.40;;;7.00;99.90;;;;;;5093201;28;20536;-71
2023/12/08 06:22:23;;;;;;;39.63;17.87;;;7.00;99.90;;;;;;5093452;28;20207;-71
2023/12/08 06:24:48;;;;;;;39.40;17.90;;;7.10;99.90;;;;;;5092961;28;20200;-71
2023/12/08 06:27:15;;;;;;;36.40;17.40;;;7.10;99.90;;;;;;5091420;28;20224;-71
2023/12/08 06:29:41;;;;;;;39.87;17.43;;;7.00;99.90;;;;;;5093224;28;20245;-71
2023/12/08 06:32:06;;;;;;;39.23;18.37;;;7.00;99.90;;;;;;5093043;28;20619;-71
2023/12/08 06:34:32;;;;;;;42.90;18.60;;;7.00;99.90;;;;;;5092419;28;20168;-71
2023/12/08 06:36:58;;;;;;;36.97;17.13;;;7.00;99.90;;;;;;5092828;28;20605;-72
2023/12/08 06:39:23;;;;;;;39.73;18.73;;;7.00;99.90;;;;;;5092598;28;20168;-72
2023/12/08 06:41:49;;;;;;;41.83;18.90;;;7.10;99.90;;;;;;5092348;28;20174;-72
2023/12/08 06:44:15;;;;;;;41.93;18.73;;;7.10;99.90;;;;;;5092103;28;20175;-71
2023/12/08 06:46:41;;;;;;;36.00;17.73;;;7.10;99.90;;;;;;5091491;28;20564;-71
2023/12/08 06:49:07;;;;;;;40.70;17.23;;;7.10;99.90;;;;;;5091716;28;20523;-71
2023/12/08 06:51:36;;;;;;;39.97;17.20;;;7.20;99.90;;;;;;5091905;28;20445;-72
2023/12/08 06:54:05;;;;;;;42.83;18.60;;;7.20;99.90;;;;;;5092484;28;20175;-72
2023/12/08 06:56:30;;;;;;;39.87;18.07;;;7.30;99.90;;;;;;5092385;28;20229;-72
2023/12/08 06:58:56;;;;;;;48.80;19.07;;;7.30;99.90;;;;;;5091606;28;20172;-72
2023/12/08 07:01:23;;;;;;;45.63;18.67;;;7.40;99.90;;;;;;5092100;28;20187;-72
2023/12/08 07:03:48;;;;;;;41.60;19.10;;;7.40;99.90;;;;;;5091610;28;20183;-73
2023/12/08 07:06:14;;;;;;;40.73;18.37;;;7.50;99.90;;;;;;5091897;28;20573;-72
2023/12/08 07:08:40;;;;;;;40.20;18.23;;;7.40;99.90;;;;;;5092299;28;20566;-72
2023/12/08 07:11:06;;;;;;;35.70;18.17;;;7.40;99.90;;;;;;5091964;28;20573;-73
2023/12/08 07:13:31;;;;;;;43.20;18.53;;;7.40;99.90;;;;;;5091727;28;20164;-72
2023/12/08 07:15:57;;;;;;;44.70;18.60;;;7.40;99.90;;;;;;5091903;28;20536;-71
2023/12/08 07:18:22;;;;;;;40.03;18.83;;;7.40;99.90;;;;;;5091699;28;20254;-72
2023/12/08 07:20:48;;;;;;;48.60;18.40;;;7.60;99.90;;;;;;5091424;28;20582;-72
2023/12/08 07:23:13;;;;;;;45.53;18.93;;;7.30;99.90;;;;;;5091884;28;20163;-71
2023/12/08 07:25:39;;;;;;;49.07;19.00;;;7.30;99.90;;;;;;5092169;28;20203;-73
2023/12/08 07:28:05;;;;;;;44.53;18.97;;;7.30;99.90;;;;;;5091785;28;20219;-72
2023/12/08 07:30:30;;;;;;;45.90;19.23;;;7.40;99.90;;;;;;5091242;28;20214;-72
2023/12/08 07:32:56;;;;;;;45.60;18.60;;;7.30;99.90;;;;;;5091771;28;20408;-71
2023/12/08 07:35:22;;;;;;;48.80;19.47;;;7.40;99.90;;;;;;5091803;28;20176;-72
2023/12/08 07:37:49;;;;;;;52.20;20.93;;;7.40;99.90;;;;;;5091821;28;20172;-72
2023/12/08 07:40:15;;;;;;;45.43;20.50;;;7.50;99.90;;;;;;5091838;28;20168;-72
2023/12/08 07:42:41;;;;;;;44.50;18.47;;;7.50;99.90;;;;;;5091288;28;20270;-72
2023/12/08 07:45:08;;;;;;;47.80;19.40;;;7.50;99.90;;;;;;5088882;28;20231;-72
2023/12/08 07:47:33;;;;;;;53.43;20.37;;;7.50;99.90;;;;;;5095400;28;20646;-72
2023/12/08 07:49:59;;;;;;;46.57;19.27;;;7.60;99.90;;;;;;5096417;28;20172;-73
2023/12/08 07:52:25;;;;;;;48.57;20.70;;;7.50;99.90;;;;;;5095652;28;20170;-72
2023/12/08 07:54:51;;;;;;;43.53;19.00;;;7.50;99.90;;;;;;5093790;28;20225;-72
2023/12/08 07:57:18;;;;;;;46.93;20.07;;;7.60;99.90;;;;;;5095044;28;20170;-73
2023/12/08 07:59:44;;;;;;;47.73;19.80;;;7.60;99.90;;;;;;5095478;28;20190;-73
2023/12/08 08:02:10;;;;;;;44.23;20.63;;;7.70;99.90;;;;;;5095446;28;20608;-73
2023/12/08 08:04:35;;;;;;;51.00;20.03;;;7.80;99.90;;;;;;5077709;28;20203;-72
2023/12/08 08:07:01;;;;;;;48.20;20.37;;;7.80;99.90;;;;;;5095519;28;20696;-71
2023/12/08 08:09:27;;;;;;;48.37;20.17;;;7.80;99.90;;;;;;5095857;28;20175;-73
2023/12/08 08:11:52;;;;;;;46.07;20.43;;;7.80;99.90;;;;;;5074974;28;20544;-72
2023/12/08 08:14:20;;;;;;;44.47;20.63;;;7.90;99.90;;;;;;5074439;28;20285;-72
2023/12/08 08:16:46;;;;;;;50.03;20.23;;;7.80;99.90;;;;;;5061112;28;20215;-73
2023/12/08 08:19:12;;;;;;;43.43;20.17;;;7.80;99.90;;;;;;5060547;28;20164;-74
2023/12/08 08:21:37;;;;;;;43.50;19.70;;;7.80;99.90;;;;;;5065699;28;20189;-74
2023/12/08 08:24:03;;;;;;;47.83;19.70;;;7.80;99.90;;;;;;5067610;28;20594;-73
2023/12/08 08:26:29;;;;;;;44.03;20.07;;;7.90;99.90;;;;;;5087275;28;20197;-74
2023/12/08 08:28:54;;;;;;;45.13;20.30;;;8.00;99.90;;;;;;5074527;28;20620;-72
2023/12/08 08:31:21;;;;;;;38.63;18.77;;;8.10;99.90;;;;;;5062225;28;20189;-74
2023/12/08 08:33:47;;;;;;;37.47;19.07;;;8.00;99.90;;;;;;5057667;28;20188;-73
2023/12/08 08:36:12;;;;;;;38.93;19.30;;;8.00;99.90;;;;;;5068666;28;20180;-72
2023/12/08 08:38:38;;;;;;;47.70;19.77;;;8.10;99.90;;;;;;5068170;28;20258;-72
2023/12/08 08:41:04;;;;;;;42.97;17.83;;;8.00;99.90;;;;;;5077548;28;20180;-72
2023/12/08 08:43:30;;;;;;;41.17;18.60;;;7.90;99.90;;;;;;5077719;28;20255;-72
2023/12/08 08:45:56;;;;;;;40.97;17.63;;;7.90;99.90;;;;;;5075729;28;20652;-71
2023/12/08 08:48:21;;;;;;;41.00;19.57;;;8.00;99.90;;;;;;5089192;28;20169;-71
2023/12/08 08:50:48;;;;;;;46.43;18.60;;;8.00;99.90;;;;;;5082340;28;20172;-72
2023/12/08 08:53:16;;;;;;;40.47;17.23;;;8.10;99.90;;;;;;5081851;28;20206;-73
2023/12/08 08:55:42;;;;;;;41.00;18.60;;;8.10;99.90;;;;;;5089662;28;20168;-73
2023/12/08 08:58:07;;;;;;;39.03;17.73;;;8.20;99.90;;;;;;5089918;28;20181;-73
2023/12/08 09:00:34;;;;;;;39.80;18.07;;;8.20;99.90;;;;;;5073945;28;20172;-74
2023/12/08 09:03:01;;;;;;;43.17;16.83;;;8.20;99.90;;;;;;5084631;28;20183;-72
2023/12/08 09:05:27;;;;;;;41.43;17.63;;;8.20;99.90;;;;;;5093927;28;20227;-73
2023/12/08 09:07:53;;;;;;;39.00;17.70;;;8.20;99.90;;;;;;5076250;28;20178;-72
2023/12/08 09:10:19;;;;;;;43.60;17.37;;;8.40;99.90;;;;;;5087006;28;20279;-72
2023/12/08 09:12:45;;;;;;;38.53;18.00;;;8.40;99.90;;;;;;5081590;28;20616;-74
2023/12/08 09:15:12;;;;;;;39.70;17.07;;;8.50;99.90;;;;;;5082219;28;20176;-73
2023/12/08 09:17:38;;;;;;;47.60;18.00;;;8.50;99.90;;;;;;5072657;28;20183;-72
2023/12/08 09:20:07;;;;;;;39.13;17.77;;;8.50;99.90;;;;;;5090530;28;20268;-72
2023/12/08 09:22:34;;;;;;;43.70;18.47;;;8.40;99.90;;;;;;5073057;28;20620;-72
2023/12/08 09:25:00;;;;;;;34.93;16.87;;;8.40;99.90;;;;;;5083065;28;20203;-72
2023/12/08 09:27:26;;;;;;;41.97;17.00;;;8.40;99.90;;;;;;5078339;28;20236;-72
2023/12/08 09:29:52;;;;;;;41.47;17.23;;;8.30;99.90;;;;;;5089416;28;20176;-72
2023/12/08 09:32:18;;;;;;;42.60;17.97;;;8.30;99.90;;;;;;5078100;28;20168;-72
2023/12/08 09:34:44;;;;;;;42.20;18.47;;;8.40;99.90;;;;;;5084799;28;20177;-72
2023/12/08 09:37:09;;;;;;;42.10;18.40;;;8.40;99.90;;;;;;5074772;28;20173;-72
2023/12/08 09:39:35;;;;;;;41.87;18.17;;;8.40;99.90;;;;;;5072671;28;20215;-73
2023/12/08 09:42:07;;;;;;;41.67;17.53;;;8.50;99.90;;;;;;5089133;28;20184;-73
2023/12/08 09:44:34;;;;;;;35.53;17.73;;;8.50;99.90;;;;;;5080062;28;20253;-73
2023/12/08 09:47:03;;;;;;;42.67;18.20;;;8.40;99.90;;;;;;5082886;28;20188;-72
2023/12/08 09:49:34;;;;;;;46.80;18.03;;;8.50;99.90;;;;;;5087742;28;20176;-72
2023/12/08 09:52:00;;;;;;;40.47;17.67;;;8.50;99.90;;;;;;5075666;28;20511;-72
2023/12/08 09:54:26;;;;;;;39.90;17.53;;;8.60;99.90;;;;;;5072997;28;20622;-72
2023/12/08 09:56:53;;;;;;;36.90;16.93;;;8.60;99.90;;;;;;5074863;28;20256;-73
2023/12/08 09:59:25;;;;;;;33.23;16.83;;;8.60;99.90;;;;;;5089823;28;20194;-73
2023/12/08 10:01:51;;;;;;;30.23;16.23;;;8.70;99.90;;;;;;5081472;28;20192;-72
2023/12/08 10:04:17;;;;;;;36.03;15.83;;;9.00;99.90;;;;;;5080658;28;20636;-73
2023/12/08 10:06:43;;;;;;;36.00;16.70;;;8.90;99.90;;;;;;5088883;28;20207;-74
2023/12/08 10:09:14;;;;;;;33.00;15.60;;;8.90;99.90;;;;;;5076316;28;20176;-73
2023/12/08 10:11:40;;;;;;;35.93;15.50;;;9.00;99.90;;;;;;5085655;28;20173;-74
2023/12/08 10:14:07;;;;;;;36.03;15.77;;;9.00;99.90;;;;;;5083033;28;20334;-74
2023/12/08 10:16:33;;;;;;;35.27;15.03;;;9.10;99.90;;;;;;5075952;28;20479;-74
2023/12/08 10:19:05;;;;;;;33.43;15.83;;;9.10;99.90;;;;;;5088908;28;20176;-73
2023/12/08 10:21:31;;;;;;;29.47;13.70;;;9.00;99.90;;;;;;5078251;28;20176;-73
2023/12/08 10:24:01;;;;;;;27.33;13.77;;;9.10;99.90;;;;;;5082324;28;20192;-74
2023/12/08 10:26:29;;;;;;;28.27;13.87;;;9.00;99.90;;;;;;5086048;28;20226;-71
2023/12/08 10:28:56;;;;;;;32.83;15.17;;;9.00;99.90;;;;;;5075963;28;20243;-72
2023/12/08 10:31:22;;;;;;;29.93;13.80;;;8.90;99.90;;;;;;5087596;28;20173;-72
2023/12/08 10:33:50;;;;;;;34.73;14.43;;;9.00;99.90;;;;;;5072015;28;20168;-72
2023/12/08 10:36:17;;;;;;;30.60;13.70;;;9.00;99.90;;;;;;5072505;28;20172;-72
2023/12/08 10:38:43;;;;;;;26.53;13.13;;;9.00;99.90;;;;;;5088098;28;20172;-72
2023/12/08 10:41:19;;;;;;;30.83;14.73;;;9.00;99.90;;;;;;5075558;28;20174;-72
2023/12/08 10:43:45;;;;;;;30.20;13.70;;;9.00;99.90;;;;;;5083447;28;20164;-73
2023/12/08 10:46:11;;;;;;;23.13;12.53;;;9.00;99.90;;;;;;5084103;28;20291;-72
2023/12/08 10:48:38;;;;;;;29.93;12.70;;;9.00;99.90;;;;;;5076588;28;20265;-72
2023/12/08 10:51:05;;;;;;;32.10;14.40;;;8.90;99.90;;;;;;5088896;28;20168;-73
2023/12/08 10:53:31;;;;;;;28.70;13.50;;;8.90;99.90;;;;;;5077527;28;20190;-72
2023/12/08 10:56:07;;;;;;;31.37;13.87;;;9.00;99.90;;;;;;5082426;28;20177;-73
2023/12/08 10:58:34;;;;;;;29.60;12.87;;;9.00;99.90;;;;;;5085324;28;20305;-73
2023/12/08 11:01:05;;;;;;;32.53;14.20;;;9.10;99.90;;;;;;5075553;28;20629;-73
2023/12/08 11:03:35;;;;;;;36.97;14.13;;;9.10;99.90;;;;;;5085147;28;20169;-72
2023/12/08 11:06:11;;;;;;;28.37;13.33;;;9.00;99.90;;;;;;5081199;28;20207;-73
2023/12/08 11:08:45;;;;;;;37.50;15.40;;;9.00;99.90;;;;;;5076779;28;20265;-72
2023/12/08 11:11:12;;;;;;;33.33;13.13;;;9.10;99.90;;;;;;5088446;28;20180;-72
2023/12/08 11:13:44;;;;;;;35.13;16.63;;;9.10;99.90;;;;;;5078481;28;20242;-72
2023/12/08 11:16:29;;;;;;;235.80;152.47;;;9.10;99.90;;;;;;5080161;28;20165;-73
2023/12/08 11:18:55;;;;;;;35.53;16.63;;;9.20;99.90;;;;;;5088144;28;20262;-70
2023/12/08 11:21:22;;;;;;;40.20;20.23;;;9.30;99.90;;;;;;5075810;28;20171;-72
2023/12/08 11:23:49;;;;;;;34.13;15.27;;;9.30;99.90;;;;;;5083691;28;20656;-72
2023/12/08 11:26:22;;;;;;;31.47;15.90;;;9.20;99.90;;;;;;5083877;28;20207;-71
2023/12/08 11:29:08;;;;;;;25.90;14.93;;;9.10;99.90;;;;;;5074914;28;20756;-72
2023/12/08 11:31:41;;;;;;;29.03;15.40;;;9.10;99.90;;;;;;5084989;28;20169;-72
2023/12/08 11:34:17;;;;;;;30.07;13.53;;;9.20;99.90;;;;;;5082035;28;20170;-71
2023/12/08 11:36:46;;;;;;;28.43;13.40;;;9.00;99.90;;;;;;5073507;28;20184;-72
2023/12/08 11:39:33;;;;;;;31.87;13.63;;;9.10;99.90;;;;;;5088326;28;20516;-72
2023/12/08 11:42:02;;;;;;;28.40;14.13;;;8.90;99.90;;;;;;5080532;28;20199;-72
2023/12/08 11:44:27;;;;;;;32.13;13.70;;;9.10;99.90;;;;;;5077010;28;20678;-72
2023/12/08 11:46:55;;;;;;;26.87;12.50;;;9.00;99.90;;;;;;5087769;28;20183;-71
2023/12/08 11:49:20;;;;;;;26.73;13.80;;;9.20;99.90;;;;;;5075508;28;20172;-72
2023/12/08 11:52:04;;;;;;;28.03;13.20;;;9.20;99.90;;;;;;5083811;28;20682;-71
2023/12/08 11:54:55;;;;;;;26.77;13.17;;;9.40;99.90;;;;;;5085432;28;20635;-72
2023/12/08 11:57:20;;;;;;;33.43;12.57;;;9.40;99.90;;;;;;5060081;28;20255;-71
2023/12/08 11:59:46;;;;;;;32.53;14.30;;;9.30;99.90;;;;;;5083809;28;20587;-72
2023/12/08 12:02:12;;;;;;;27.40;12.70;;;9.40;99.90;;;;;;5082738;28;20180;-72
2023/12/08 12:04:38;;;;;;;28.00;12.60;;;9.40;99.90;;;;;;5075353;28;20206;-72
2023/12/08 12:07:04;;;;;;;23.73;12.43;;;9.50;99.90;;;;;;5087517;28;20172;-72
2023/12/08 12:09:33;;;;;;;32.87;13.47;;;9.50;99.90;;;;;;5075753;28;20176;-73
2023/12/08 12:12:06;;;;;;;23.97;12.27;;;9.60;99.90;;;;;;5080544;28;20307;-72
2023/12/08 12:14:35;;;;;;;29.27;12.83;;;9.60;99.90;;;;;;5085962;28;20691;-73
2023/12/08 12:17:00;;;;;;;29.57;11.80;;;9.50;99.90;;;;;;5074529;28;20161;-72
2023/12/08 12:19:26;;;;;;;32.07;12.50;;;9.40;99.90;;;;;;5083331;28;20173;-73
2023/12/08 12:21:52;;;;;;;23.10;11.80;;;9.50;99.90;;;;;;5077130;28;20168;-71
2023/12/08 12:24:17;;;;;;;24.80;11.73;;;9.60;99.90;;;;;;5083462;28;20604;-73
2023/12/08 12:26:43;;;;;;;25.13;11.90;;;9.60;99.90;;;;;;5074410;28;20299;-72
2023/12/08 12:29:09;;;;;;;27.53;11.50;;;9.60;99.90;;;;;;5087417;28;20176;-72
2023/12/08 12:31:34;;;;;;;22.07;10.47;;;9.60;99.90;;;;;;5078012;28;20400;-73
2023/12/08 12:34:00;;;;;;;22.33;11.27;;;9.50;99.90;;;;;;5082171;28;20754;-72
2023/12/08 12:36:25;;;;;;;23.00;11.27;;;9.60;99.90;;;;;;5088442;28;20560;-72
2023/12/08 12:38:52;;;;;;;21.93;10.80;;;9.60;99.90;;;;;;5077822;28;20620;-71